Campanya meteocatpedra

Dades EMA Ascó

?
?
Resum diari 20:30 TU
Dades diàries de l'estació meteorològica
Temperatura mitjana 26.6 °C
Temperatura màxima 34.2 °C 14:44 TU
Temperatura mínima 22.3 °C 5:01 TU
Humitat relativa mitjana 64%
Precipitació acumulada 0.0 mm
Ratxa màxima del vent (2 m) 21.2 km/h - 179º 19:24 TU
Irradiació solar global 20.3 MJ/m2

El tram horari està expressat en Temps Universal (TU). Cal sumar una hora en horari d'hivern i dues en horari d'estiu per passar a l'hora oficial.

Ascó

Metadades estació meteorol´gica
Municipi Ascó
Comarca Ribera d'Ebre
Altitud 257 m
Data alta 15.06.1998
Estat actual Operativa
Dades de període
Període
TU
TM
°C
TX
°C
TN
°C
HRM
%
PPT
mm
VVM (2 m)
km/h
DVM (2 m)
graus
VVX (2 m)
km/h
RS
W/m2
00:00 - 00:30 22.4 22.4 22.3 84 0.0 6.1 201 14.8 0
00:30 - 01:00 22.3 22.4 22.3 86 0.0 6.8 194 14.8 0
01:00 - 01:30 22.5 22.6 22.4 85 0.0 8.3 203 18.4 0
01:30 - 02:00 22.5 22.6 22.5 86 0.0 7.9 201 18.7 0
02:00 - 02:30 22.6 22.7 22.6 87 0.0 5.8 195 18.0 0
02:30 - 03:00 22.5 22.6 22.5 88 0.0 4.3 178 13.7 0
03:00 - 03:30 22.4 22.5 22.4 89 0.0 4.7 201 11.2 0
03:30 - 04:00 22.4 22.4 22.3 89 0.0 2.9 194 9.7 0
04:00 - 04:30 22.3 22.4 22.3 89 0.0 3.2 198 11.9 0
04:30 - 05:00 22.4 22.4 22.3 89 0.0 4.0 195 9.7 0
05:00 - 05:30 22.4 22.5 22.3 89 0.0 2.9 193 8.6 14
05:30 - 06:00 22.8 23.1 22.5 87 0.0 2.2 200 7.9 48
06:00 - 06:30 23.4 23.7 23.1 83 0.0 1.8 145 7.6 83
06:30 - 07:00 23.2 23.4 23.0 80 0.0 2.9 330 6.5 85
07:00 - 07:30 23.2 23.4 22.9 80 0.0 2.5 67 6.8 68
07:30 - 08:00 23.1 23.6 23.0 81 0.0 2.9 72 6.5 135
08:00 - 08:30 24.4 24.9 23.7 72 0.0 4.7 61 9.7 372
08:30 - 09:00 25.1 25.3 24.8 69 0.0 4.0 70 11.2 303
09:00 - 09:30 25.3 25.5 25.1 66 0.0 4.0 45 10.8 258
09:30 - 10:00 25.7 26.3 25.4 62 0.0 4.7 12 10.4 329
10:00 - 10:30 26.8 27.4 26.3 60 0.0 2.9 25 11.2 457
10:30 - 11:00 28.2 29.1 27.2 54 0.0 5.4 87 12.6 737
11:00 - 11:30 29.4 29.8 28.6 50 0.0 6.8 113 18.0 804
11:30 - 12:00 30.0 30.8 29.3 48 0.0 5.8 95 16.2 813
12:00 - 12:30 30.7 31.2 30.3 46 0.0 6.5 105 17.6 847
12:30 - 13:00 31.3 31.6 30.8 44 0.0 5.4 97 15.8 831
13:00 - 13:30 31.9 32.4 31.2 42 0.0 6.1 123 14.0 829
13:30 - 14:00 32.5 32.8 32.1 40 0.0 7.2 118 16.9 793
14:00 - 14:30 32.9 33.3 32.3 38 0.0 5.0 125 15.5 753
14:30 - 15:00 33.5 34.2 33.0 35 0.0 5.8 95 15.5 679
15:00 - 15:30 33.2 33.5 32.9 36 0.0 6.8 123 16.9 498
15:30 - 16:00 32.4 33.3 31.8 40 0.0 9.0 175 20.9 397
16:00 - 16:30 32.1 32.4 31.5 42 0.0 7.6 193 18.0 423
16:30 - 17:00 31.5 31.8 31.1 43 0.0 7.6 189 18.4 324
17:00 - 17:30 30.7 31.1 30.4 45 0.0 6.5 182 19.8 225
17:30 - 18:00 29.8 30.4 29.1 48 0.0 6.5 187 15.5 105
18:00 - 18:30 28.5 29.0 28.0 51 0.0 5.8 180 14.0 40
18:30 - 19:00 27.3 27.9 26.7 55 0.0 5.4 183 14.0 11
19:00 - 19:30 26.2 26.6 25.9 61 0.0 6.8 191 21.2 1
19:30 - 20:00 25.7 25.8 25.4 64 0.0 7.9 199 18.4 0
20:00 - 20:30 25.3 25.4 25.2 64 0.0 7.2 196 17.6 0
20:30 - 21:00 25.1 25.4 24.8 64 0.0 4.7 183 14.0 0
21:00 - 21:30 24.8 24.9 24.7 62 0.0 6.1 198 15.8 0

Les dades en taronja només han passat un control de qualitat automàtic. Resta pendent la seva validació definitiva.